Time;durP1;ratioP1;P1;durP2;ratioP2;P2;SDS_P1;SDS_P2;PMS_P1;PMS_P2;Temp;Humidity;BMP_temperature;BMP_pressure;BME280_temperature;BME280_humidity;BME280_pressure;Samples;Min_cycle;Max_cycle;Signal;HPM_P1;HPM_P2
2023/02/06 00:00:09;;;;;;;12.95;1.35;;;;;;;0.94;56.11;104208.75;4983083;28;20038;-72
2023/02/06 00:02:35;;;;;;;15.90;1.05;;;;;;;0.93;56.17;104199.28;4990631;28;20042;-72
2023/02/06 00:05:01;;;;;;;17.27;0.95;;;;;;;0.95;56.04;104196.75;4963854;28;20117;-72
2023/02/06 00:07:26;;;;;;;10.70;1.33;;;;;;;0.93;55.83;104193.25;4990283;28;20033;-71
2023/02/06 00:09:52;;;;;;;6.40;0.75;;;;;;;0.90;55.75;104194.84;4962557;28;20448;-71
2023/02/06 00:12:17;;;;;;;5.90;0.90;;;;;;;0.82;55.58;104195.22;4959486;28;20030;-71
2023/02/06 00:14:43;;;;;;;22.80;2.55;;;;;;;0.78;55.95;104199.31;4960579;28;20035;-72
2023/02/06 00:17:08;;;;;;;10.15;1.77;;;;;;;0.75;55.71;104193.09;4962336;28;20433;-72
2023/02/06 00:19:33;;;;;;;11.27;0.95;;;;;;;0.72;55.88;104195.53;4957588;28;20751;-72
2023/02/06 00:21:59;;;;;;;13.35;1.63;;;;;;;0.71;55.93;104196.34;4963476;28;20304;-72
2023/02/06 00:24:24;;;;;;;6.97;1.00;;;;;;;0.75;55.94;104194.00;4959812;28;20043;-72
2023/02/06 00:26:50;;;;;;;10.25;0.98;;;;;;;0.78;55.48;104203.59;4946988;28;20038;-72
2023/02/06 00:29:15;;;;;;;10.00;1.38;;;;;;;0.67;55.77;104195.28;4958576;28;20134;-72
2023/02/06 00:31:41;;;;;;;20.15;1.58;;;;;;;0.68;55.32;104186.75;4963554;28;20042;-72
2023/02/06 00:34:06;;;;;;;15.00;1.83;;;;;;;0.75;55.29;104188.88;4961588;28;20073;-79
2023/02/06 00:36:32;;;;;;;25.92;1.58;;;;;;;0.70;55.20;104177.41;4973774;28;20450;-76
2023/02/06 00:38:58;;;;;;;5.72;0.28;;;;;;;0.55;55.41;104180.06;4965226;28;20051;-77
2023/02/06 00:41:23;;;;;;;7.65;0.93;;;;;;;0.43;55.42;104179.34;4972936;28;20138;-77
2023/02/06 00:43:50;;;;;;;7.70;0.45;;;;;;;0.40;55.57;104174.94;4983457;28;20355;-76
2023/02/06 00:46:15;;;;;;;11.30;1.75;;;;;;;0.42;55.15;104187.91;4977993;28;20041;-77
2023/02/06 00:48:42;;;;;;;9.07;1.83;;;;;;;0.38;55.48;104189.41;4981915;28;20672;-77
2023/02/06 00:51:07;;;;;;;6.82;0.68;;;;;;;0.41;55.67;104196.41;4975250;28;20306;-78
2023/02/06 00:53:35;;;;;;;6.18;1.20;;;;;;;0.41;55.85;104192.16;4996513;28;20042;-78
2023/02/06 00:56:01;;;;;;;11.68;1.00;;;;;;;0.42;55.78;104196.50;4995577;28;20042;-77
2023/02/06 00:58:26;;;;;;;6.65;0.63;;;;;;;0.45;55.47;104190.63;4966113;28;20038;-72
2023/02/06 01:00:52;;;;;;;9.50;1.88;;;;;;;0.44;55.36;104192.31;4987919;28;23003;-80
2023/02/06 01:03:18;;;;;;;13.30;1.20;;;;;;;0.42;55.34;104190.47;4971921;28;20393;-80
2023/02/06 01:05:43;;;;;;;10.75;1.42;;;;;;;0.41;56.05;104191.25;4979334;28;20104;-81
2023/02/06 01:08:10;;;;;;;22.73;1.27;;;;;;;0.46;56.43;104195.88;4978616;28;20472;-79
2023/02/06 01:10:35;;;;;;;11.98;1.95;;;;;;;0.53;56.74;104186.81;4956595;28;20041;-79
2023/02/06 01:13:03;;;;;;;16.83;1.33;;;;;;;0.66;56.52;104186.66;4987440;28;20034;-79
2023/02/06 01:15:28;;;;;;;10.13;1.10;;;;;;;0.76;56.36;104179.44;4978732;28;20026;-80
2023/02/06 01:17:54;;;;;;;7.25;0.73;;;;;;;0.81;55.71;104185.72;5000488;28;20030;-79
2023/02/06 01:20:21;;;;;;;10.95;0.65;;;;;;;0.80;56.19;104186.53;4968495;28;20129;-77
2023/02/06 01:22:47;;;;;;;16.00;1.20;;;;;;;0.84;55.77;104193.63;4973982;28;20034;-77
2023/02/06 01:25:12;;;;;;;9.02;1.17;;;;;;;0.90;56.39;104189.69;4966527;28;20042;-78
2023/02/06 01:27:38;;;;;;;16.35;2.33;;;;;;;0.96;56.40;104194.28;4970341;28;20030;-78
2023/02/06 01:30:05;;;;;;;11.70;1.58;;;;;;;0.92;55.75;104200.06;4969410;28;20112;-78
2023/02/06 01:32:31;;;;;;;17.48;1.98;;;;;;;0.86;55.84;104204.91;4962423;28;20042;-79
2023/02/06 01:34:56;;;;;;;11.18;1.48;;;;;;;0.84;55.90;104209.09;4972566;28;20050;-77
2023/02/06 01:37:22;;;;;;;7.25;1.23;;;;;;;0.88;55.52;104205.84;5002935;28;20101;-76
2023/02/06 01:39:47;;;;;;;13.00;2.20;;;;;;;0.82;55.74;104208.97;5001329;28;20042;-77
2023/02/06 01:42:12;;;;;;;9.73;1.20;;;;;;;0.89;55.51;104217.94;4957146;28;20061;-78
2023/02/06 01:44:38;;;;;;;13.93;2.10;;;;;;;0.89;55.43;104215.34;4978747;28;20085;-76
2023/02/06 01:47:04;;;;;;;14.50;1.75;;;;;;;0.86;55.55;104203.19;4972047;28;20069;-79
2023/02/06 01:49:35;;;;;;;16.17;1.95;;;;;;;0.67;55.36;104214.16;4988515;28;20129;-78
2023/02/06 01:52:03;;;;;;;11.57;1.42;;;;;;;0.59;55.27;104202.59;4986568;28;20026;-72
2023/02/06 01:54:30;;;;;;;11.73;1.55;;;;;;;0.47;55.82;104191.59;4982000;28;20049;-72
2023/02/06 01:56:59;;;;;;;8.55;1.25;;;;;;;0.47;55.66;104192.47;4970219;28;20061;-72
2023/02/06 01:59:26;;;;;;;9.15;1.08;;;;;;;0.46;55.71;104195.00;4974522;28;20038;-72
2023/02/06 02:01:52;;;;;;;10.77;0.85;;;;;;;0.41;55.32;104191.25;4970327;28;20035;-69
2023/02/06 02:04:24;;;;;;;6.75;1.08;;;;;;;0.37;55.51;104194.50;4969983;28;20044;-74
2023/02/06 02:07:16;;;;;;;7.07;0.52;;;;;;;0.37;55.20;104191.91;5001899;28;20038;-74
2023/02/06 02:09:42;;;;;;;5.25;0.95;;;;;;;0.37;55.01;104194.50;4960316;28;20046;-74
2023/02/06 02:12:07;;;;;;;6.50;1.05;;;;;;;0.24;55.15;104188.63;4969756;28;20041;-74
2023/02/06 02:14:34;;;;;;;4.45;0.55;;;;;;;0.19;55.32;104187.50;4998080;28;20034;-74
2023/02/06 02:17:18;;;;;;;17.60;1.60;;;;;;;0.11;55.72;104185.28;4974841;28;20040;-74
2023/02/06 02:20:21;;;;;;;16.25;1.00;;;;;;;0.04;55.67;104187.50;4955955;28;20570;-75
2023/02/06 02:23:19;;;;;;;8.68;1.15;;;;;;;-0.04;56.07;104185.28;4977010;28;20211;-76
2023/02/06 02:25:57;;;;;;;9.48;1.02;;;;;;;-0.01;56.13;104190.63;4939902;28;20129;-81
2023/02/06 02:28:28;;;;;;;11.10;1.05;;;;;;;0.02;56.06;104186.53;4960066;28;20046;-80
2023/02/06 02:31:34;;;;;;;16.52;0.85;;;;;;;0.03;56.65;104185.75;4966034;28;20038;-72
2023/02/06 02:34:33;;;;;;;13.38;0.95;;;;;;;0.13;56.71;104184.56;4966024;28;20050;-79
2023/02/06 02:37:03;;;;;;;25.38;1.42;;;;;;;0.23;56.99;104180.81;4972211;28;20022;-78
2023/02/06 02:39:51;;;;;;;21.00;2.00;;;;;;;0.26;57.22;104189.59;4964530;28;20050;-71
2023/02/06 02:42:31;;;;;;;11.60;1.30;;;;;;;0.38;56.59;104198.81;4963860;28;20030;-79
2023/02/06 02:45:16;;;;;;;9.25;1.42;;;;;;;0.43;56.76;104197.38;4975731;28;20085;-79
2023/02/06 02:47:48;;;;;;;13.82;2.80;;;;;;;0.44;56.64;104201.75;4969143;28;20039;-78
2023/02/06 02:50:16;;;;;;;22.40;1.38;;;;;;;0.45;56.71;104200.91;4976880;28;20043;-80
2023/02/06 02:52:42;;;;;;;12.60;1.48;;;;;;;0.41;56.87;104199.88;4966647;28;20038;-77
2023/02/06 02:55:16;;;;;;;7.63;1.58;;;;;;;0.46;56.57;104195.00;4982457;28;20368;-77
2023/02/06 02:57:46;;;;;;;8.05;0.75;;;;;;;0.48;56.12;104198.53;4965601;28;20046;-78
2023/02/06 03:00:13;;;;;;;7.28;1.63;;;;;;;0.43;56.39;104194.81;4971529;28;20042;-78
2023/02/06 03:02:40;;;;;;;9.07;1.30;;;;;;;0.45;56.30;104188.06;4950857;28;20149;-77
2023/02/06 03:05:10;;;;;;;10.30;0.88;;;;;;;0.44;56.20;104181.16;4972638;28;20334;-76
2023/02/06 03:07:52;;;;;;;9.95;0.90;;;;;;;0.44;55.93;104170.84;4985923;28;20045;-78
2023/02/06 03:10:18;;;;;;;8.52;2.50;;;;;;;0.33;56.19;104159.09;4963637;28;20678;-76
2023/02/06 03:12:51;;;;;;;10.45;1.60;;;;;;;0.29;56.18;104163.16;4963611;28;20053;-77
2023/02/06 03:15:45;;;;;;;8.45;1.15;;;;;;;0.21;56.30;104167.91;4986050;28;20058;-76
2023/02/06 03:18:21;;;;;;;11.40;0.90;;;;;;;0.13;56.39;104164.00;4964609;28;20082;-75
2023/02/06 03:20:47;;;;;;;14.98;1.25;;;;;;;0.19;55.89;104163.44;4981911;28;20105;-76
2023/02/06 03:23:21;;;;;;;9.60;1.33;;;;;;;0.17;55.91;104153.06;4963251;28;20055;-76
2023/02/06 03:25:51;;;;;;;7.00;0.70;;;;;;;0.07;55.53;104161.06;4949546;28;20206;-77
2023/02/06 03:28:22;;;;;;;9.18;1.77;;;;;;;-0.08;55.16;104152.47;4968925;28;20073;-76
2023/02/06 03:30:52;;;;;;;10.10;1.00;;;;;;;-0.27;55.79;104161.72;4960884;28;20066;-76
2023/02/06 03:33:21;;;;;;;5.70;0.73;;;;;;;-0.26;55.63;104172.88;4948824;28;20133;-76
2023/02/06 03:35:48;;;;;;;8.63;0.70;;;;;;;-0.23;55.75;104173.06;4941716;28;20035;-77
2023/02/06 03:38:16;;;;;;;6.75;1.00;;;;;;;-0.19;55.92;104180.13;4950137;28;20130;-76
2023/02/06 03:40:46;;;;;;;13.48;1.23;;;;;;;-0.19;55.95;104175.91;4949543;28;20165;-77
2023/02/06 03:43:17;;;;;;;16.98;1.00;;;;;;;-0.21;55.92;104179.19;4962684;28;20093;-78
2023/02/06 03:45:48;;;;;;;8.25;0.88;;;;;;;-0.19;56.22;104180.13;4960881;28;20039;-77
2023/02/06 03:48:21;;;;;;;16.60;1.65;;;;;;;-0.04;56.38;104175.00;4968759;28;20098;-74
2023/02/06 03:50:51;;;;;;;4.90;0.65;;;;;;;-0.01;56.32;104176.06;4979583;28;20043;-79
2023/02/06 03:53:18;;;;;;;6.72;0.60;;;;;;;0.06;56.37;104173.03;4998524;28;20034;-80
2023/02/06 03:55:45;;;;;;;9.60;1.42;;;;;;;0.01;56.47;104182.19;4968911;28;20482;-73
2023/02/06 03:58:13;;;;;;;5.30;0.80;;;;;;;0.05;56.30;104180.66;4963928;28;20070;-73
2023/02/06 04:00:41;;;;;;;7.72;0.63;;;;;;;0.07;56.66;104184.22;4959422;28;20031;-73
2023/02/06 04:03:09;;;;;;;9.77;2.15;;;;;;;0.19;56.72;104174.63;4962268;28;20046;-73
2023/02/06 04:05:35;;;;;;;10.15;0.50;;;;;;;0.25;56.65;104163.78;4993325;28;20070;-74
2023/02/06 04:08:03;;;;;;;5.40;0.47;;;;;;;0.24;56.57;104170.63;4967510;28;20035;-73
2023/02/06 04:10:28;;;;;;;16.05;0.90;;;;;;;0.30;56.61;104182.06;4961763;28;20526;-74
2023/02/06 04:12:54;;;;;;;13.85;1.60;;;;;;;0.34;57.00;104184.00;4957915;28;20551;-74
2023/02/06 04:15:20;;;;;;;13.63;0.68;;;;;;;0.40;56.75;104186.91;4967689;28;20038;-72
2023/02/06 04:17:45;;;;;;;5.32;0.50;;;;;;;0.47;56.81;104186.47;4978754;28;20058;-72
2023/02/06 04:20:11;;;;;;;10.40;1.30;;;;;;;0.51;56.95;104188.41;5005350;28;20038;-75
2023/02/06 04:22:38;;;;;;;7.30;1.00;;;;;;;0.58;56.50;104180.22;4978476;28;20133;-73
2023/02/06 04:25:03;;;;;;;9.05;0.50;;;;;;;0.62;56.18;104187.31;4971697;28;20034;-75
2023/02/06 04:27:31;;;;;;;11.05;1.48;;;;;;;0.52;56.26;104181.56;4966114;28;20547;-73
2023/02/06 04:29:56;;;;;;;4.68;0.70;;;;;;;0.44;56.32;104184.59;4978999;28;20034;-72
2023/02/06 04:32:22;;;;;;;3.78;0.52;;;;;;;0.42;56.34;104187.91;4966693;28;20120;-73
2023/02/06 04:34:47;;;;;;;16.75;1.33;;;;;;;0.31;56.30;104183.84;4979464;28;20141;-73
2023/02/06 04:37:13;;;;;;;17.60;1.60;;;;;;;0.23;56.48;104185.97;4963224;28;20042;-74
2023/02/06 04:39:38;;;;;;;6.85;1.02;;;;;;;0.18;56.20;104171.97;4965394;28;20428;-72
2023/02/06 04:42:05;;;;;;;13.20;0.88;;;;;;;0.11;56.32;104178.44;4964815;28;20038;-73
2023/02/06 04:44:32;;;;;;;7.03;0.63;;;;;;;0.06;56.40;104172.16;4965691;28;20041;-74
2023/02/06 04:46:59;;;;;;;9.10;1.60;;;;;;;0.11;56.12;104181.03;4967505;28;20031;-74
2023/02/06 04:49:24;;;;;;;15.73;0.80;;;;;;;0.04;56.42;104176.34;4962043;28;20039;-72
2023/02/06 04:51:50;;;;;;;21.05;1.05;;;;;;;0.03;56.39;104175.47;4964327;28;20041;-71
2023/02/06 04:54:16;;;;;;;14.88;1.77;;;;;;;0.13;56.34;104165.69;4968180;28;20542;-72
2023/02/06 04:56:43;;;;;;;7.43;0.63;;;;;;;0.11;55.98;104170.72;4970132;28;20757;-72
2023/02/06 04:59:09;;;;;;;7.82;0.70;;;;;;;0.03;56.25;104166.84;4965173;28;20535;-72
2023/02/06 05:01:35;;;;;;;9.05;1.13;;;;;;;0.07;56.29;104158.50;4960909;28;20038;-71
2023/02/06 05:04:01;;;;;;;13.65;1.23;;;;;;;0.11;56.23;104163.00;4964058;28;20034;-71
2023/02/06 05:06:28;;;;;;;9.18;1.02;;;;;;;0.19;57.09;104153.16;4963136;28;20398;-71
2023/02/06 05:08:54;;;;;;;11.57;0.60;;;;;;;0.26;56.90;104139.84;4982683;28;20523;-73
2023/02/06 05:11:20;;;;;;;6.80;0.88;;;;;;;0.34;57.04;104140.25;4966292;28;20125;-74
2023/02/06 05:13:46;;;;;;;7.60;0.90;;;;;;;0.40;56.88;104150.91;4955196;28;20053;-74
2023/02/06 05:16:14;;;;;;;7.10;1.20;;;;;;;0.48;56.71;104147.94;4957125;28;20035;-74
2023/02/06 05:18:40;;;;;;;7.55;1.30;;;;;;;0.55;56.73;104153.44;4968868;28;20053;-73
2023/02/06 05:21:06;;;;;;;4.20;0.70;;;;;;;0.65;57.04;104145.38;4980672;28;20057;-69
2023/02/06 05:23:32;;;;;;;10.82;0.73;;;;;;;0.73;57.22;104138.09;4964019;28;20038;-75
2023/02/06 05:25:59;;;;;;;4.75;0.85;;;;;;;0.77;56.75;104130.59;4954312;28;20125;-75
2023/02/06 05:28:26;;;;;;;17.70;1.08;;;;;;;0.81;57.68;104129.06;4952311;28;20554;-76
2023/02/06 05:30:51;;;;;;;6.68;0.65;;;;;;;1.02;57.36;104122.47;4966597;28;20072;-75
2023/02/06 05:33:17;;;;;;;6.40;0.47;;;;;;;1.11;57.20;104122.94;4951232;28;20117;-76
2023/02/06 05:35:43;;;;;;;11.27;0.85;;;;;;;1.05;56.77;104125.19;4965926;28;20049;-75
2023/02/06 05:38:08;;;;;;;18.45;1.55;;;;;;;1.04;56.82;104126.00;4987832;28;20074;-75
2023/02/06 05:40:33;;;;;;;10.63;1.15;;;;;;;1.15;56.71;104126.56;4959848;28;20042;-74
2023/02/06 05:42:59;;;;;;;7.78;0.68;;;;;;;1.09;57.02;104118.53;4964129;28;20124;-72
2023/02/06 05:45:25;;;;;;;5.45;0.98;;;;;;;0.93;56.46;104111.69;4962476;28;20045;-72
2023/02/06 05:47:52;;;;;;;10.13;0.63;;;;;;;0.68;55.69;104110.41;4965621;28;20046;-72
2023/02/06 05:50:18;;;;;;;7.50;0.80;;;;;;;0.39;56.00;104110.50;4962554;28;20038;-73
2023/02/06 05:52:43;;;;;;;8.43;0.63;;;;;;;0.27;56.23;104105.59;4963125;28;20170;-73
2023/02/06 05:55:09;;;;;;;2.88;0.50;;;;;;;0.35;56.16;104113.75;4995023;28;20101;-73
2023/02/06 05:57:34;;;;;;;6.97;0.95;;;;;;;0.42;56.54;104120.97;4964782;28;21597;-73
2023/02/06 06:00:00;;;;;;;12.05;0.75;;;;;;;0.45;56.24;104118.56;4994297;28;20046;-73
2023/02/06 06:02:25;;;;;;;11.63;0.70;;;;;;;0.46;56.57;104128.06;4977732;28;20045;-72
2023/02/06 06:04:50;;;;;;;9.38;1.40;;;;;;;0.50;56.65;104119.69;4971246;28;20500;-73
2023/02/06 06:07:16;;;;;;;4.60;0.77;;;;;;;0.66;56.47;104117.16;4960061;28;20117;-74
2023/02/06 06:09:41;;;;;;;10.30;1.48;;;;;;;0.67;56.61;104116.34;4965888;28;20178;-72
2023/02/06 06:12:07;;;;;;;7.20;0.93;;;;;;;0.67;56.55;104123.19;4947915;28;20069;-73
2023/02/06 06:14:32;;;;;;;6.57;0.75;;;;;;;0.76;56.72;104127.94;4960943;28;20038;-76
2023/02/06 06:16:58;;;;;;;9.35;1.52;;;;;;;0.82;56.75;104123.13;4963850;28;20321;-71
2023/02/06 06:19:23;;;;;;;18.23;2.08;;;;;;;0.92;56.75;104125.34;4963703;28;20034;-72
2023/02/06 06:21:49;;;;;;;10.38;1.17;;;;;;;0.92;56.77;104125.34;4962700;28;20089;-71
2023/02/06 06:24:14;;;;;;;15.95;1.52;;;;;;;1.00;56.81;104125.78;4991486;28;20023;-72
2023/02/06 06:26:40;;;;;;;7.20;0.85;;;;;;;1.04;56.64;104133.75;4960711;28;20399;-74
2023/02/06 06:29:07;;;;;;;20.63;2.25;;;;;;;1.05;56.89;104132.91;4967224;28;20142;-80
2023/02/06 06:31:33;;;;;;;15.50;1.80;;;;;;;1.06;56.79;104131.22;4957787;28;20045;-79
2023/02/06 06:33:58;;;;;;;10.55;1.42;;;;;;;1.03;56.78;104129.38;4970499;28;20038;-79
2023/02/06 06:36:27;;;;;;;12.15;2.10;;;;;;;1.11;56.86;104127.22;4984947;28;20586;-81
2023/02/06 06:38:52;;;;;;;6.18;1.33;;;;;;;1.13;57.00;104129.84;5003821;28;20054;-80
2023/02/06 06:41:20;;;;;;;13.35;1.98;;;;;;;1.23;57.06;104127.84;4956662;28;20034;-76
2023/02/06 06:43:45;;;;;;;10.43;2.22;;;;;;;1.32;57.38;104123.16;4960157;28;20455;-79
2023/02/06 06:46:11;;;;;;;15.00;1.23;;;;;;;1.45;57.60;104129.84;4973326;28;20042;-78
2023/02/06 06:48:37;;;;;;;6.57;1.45;;;;;;;1.58;57.45;104123.63;4962592;28;20049;-76
2023/02/06 06:51:04;;;;;;;7.53;0.75;;;;;;;1.72;57.76;104120.00;4963963;28;20499;-77
2023/02/06 06:53:29;;;;;;;20.15;3.15;;;;;;;1.85;57.79;104115.47;4959009;28;20042;-76
2023/02/06 06:56:01;;;;;;;18.20;4.22;;;;;;;2.03;57.68;104118.03;4961281;28;20435;-76
2023/02/06 06:58:26;;;;;;;35.55;5.15;;;;;;;2.10;57.86;104120.97;4943934;28;20101;-76
2023/02/06 07:00:53;;;;;;;23.05;2.17;;;;;;;2.26;57.92;104114.84;4974579;28;20491;-83
2023/02/06 07:03:19;;;;;;;25.75;1.73;;;;;;;2.39;57.70;104116.28;4946102;28;20130;-71
2023/02/06 07:05:44;;;;;;;10.27;1.10;;;;;;;2.47;57.76;104119.25;4965923;28;20042;-74
2023/02/06 07:08:10;;;;;;;16.80;1.70;;;;;;;2.47;57.77;104119.25;4962526;28;20057;-71
2023/02/06 07:10:35;;;;;;;23.00;3.60;;;;;;;2.49;57.33;104113.34;4959727;28;20062;-70
2023/02/06 07:13:01;;;;;;;18.95;1.98;;;;;;;2.50;57.32;104109.03;4959666;28;20416;-69
2023/02/06 07:15:27;;;;;;;9.70;1.60;;;;;;;2.50;57.17;104120.25;4991472;28;20511;-70
2023/02/06 07:17:55;;;;;;;13.20;1.75;;;;;;;2.43;57.43;104122.50;4959879;28;20201;-70
2023/02/06 07:20:20;;;;;;;17.48;1.83;;;;;;;2.49;57.21;104127.94;4959467;28;20476;-70
2023/02/06 07:22:46;;;;;;;14.27;1.95;;;;;;;2.49;57.15;104122.78;4944879;28;20050;-70
2023/02/06 07:25:12;;;;;;;11.15;2.13;;;;;;;2.48;57.05;104126.16;4960820;28;20054;-71
2023/02/06 07:27:37;;;;;;;17.75;2.03;;;;;;;2.43;57.42;104117.34;4960411;28;20389;-70
2023/02/06 07:30:03;;;;;;;15.77;4.32;;;;;;;2.39;57.54;104120.59;4993439;28;20097;-70
2023/02/06 07:32:29;;;;;;;32.13;8.07;;;;;;;2.39;57.66;104120.59;4955119;28;20317;-72
2023/02/06 07:34:54;;;;;;;29.75;11.65;;;;;;;2.47;57.69;104125.28;4940373;28;20051;-70
2023/02/06 07:37:20;;;;;;;38.95;13.20;;;;;;;2.55;57.70;104118.78;4942443;28;20043;-70
2023/02/06 07:39:48;;;;;;;40.88;12.43;;;;;;;2.60;57.53;104121.56;4940232;28;20575;-69
2023/02/06 07:42:13;;;;;;;29.08;9.85;;;;;;;2.66;57.83;104120.94;4943459;28;20043;-70
2023/02/06 07:44:50;;;;;;;26.00;7.53;;;;;;;2.75;57.96;104114.50;4943369;28;20062;-70
2023/02/06 07:47:15;;;;;;;36.25;7.38;;;;;;;2.68;58.67;104122.78;4943064;28;20051;-70
2023/02/06 07:49:41;;;;;;;26.70;6.55;;;;;;;2.87;58.58;104121.94;4942567;28;20070;-70
2023/02/06 07:52:06;;;;;;;28.20;6.18;;;;;;;2.74;58.94;104123.06;4939525;28;20138;-70
2023/02/06 07:54:32;;;;;;;28.08;5.18;;;;;;;3.05;58.34;104127.00;4939156;28;20035;-72
2023/02/06 07:56:57;;;;;;;24.77;6.07;;;;;;;3.07;58.70;104133.13;4941018;28;20043;-71
2023/02/06 07:59:23;;;;;;;20.58;4.82;;;;;;;3.22;58.44;104135.47;4939996;28;20114;-71
2023/02/06 08:01:49;;;;;;;17.98;4.57;;;;;;;3.24;57.91;104135.56;4941099;28;20879;-72
2023/02/06 08:04:14;;;;;;;17.55;5.47;;;;;;;3.33;57.94;104144.63;4939650;28;20065;-73
2023/02/06 08:06:41;;;;;;;16.38;2.30;;;;;;;3.30;57.50;104148.78;4941695;28;20050;-70
2023/02/06 08:09:12;;;;;;;20.08;2.00;;;;;;;3.44;57.71;104152.84;4941038;28;20126;-70
2023/02/06 08:11:45;;;;;;;12.80;2.05;;;;;;;3.61;57.98;104155.28;4942399;28;20031;-71
2023/02/06 08:14:11;;;;;;;26.13;2.72;;;;;;;3.77;58.08;104173.19;4938837;28;20062;-70
2023/02/06 08:16:38;;;;;;;19.95;3.60;;;;;;;3.94;58.12;104171.25;4939011;28;20047;-71
2023/02/06 08:19:05;;;;;;;28.65;4.60;;;;;;;4.11;57.24;104166.78;4941393;28;20109;-70
2023/02/06 08:21:31;;;;;;;22.98;3.08;;;;;;;4.21;57.18;104169.81;4971517;28;20102;-70
2023/02/06 08:23:58;;;;;;;16.17;1.95;;;;;;;4.55;57.54;104162.44;4959159;28;20054;-71
2023/02/06 08:26:26;;;;;;;11.98;1.77;;;;;;;4.92;56.95;104159.56;4967021;28;20058;-70
2023/02/06 08:28:53;;;;;;;18.95;2.45;;;;;;;5.38;56.67;104155.09;4965192;28;20058;-71
2023/02/06 08:31:28;;;;;;;13.73;1.45;;;;;;;5.98;56.31;104144.97;4961208;28;20038;-70
2023/02/06 08:33:56;;;;;;;19.75;3.88;;;;;;;6.67;53.95;104146.22;4975113;28;20062;-70
2023/02/06 08:36:23;;;;;;;10.32;2.00;;;;;;;6.99;53.50;104149.69;4959667;28;20044;-70
2023/02/06 08:38:49;;;;;;;14.95;1.58;;;;;;;6.68;53.27;104150.56;4960061;28;20046;-70
2023/02/06 08:41:21;;;;;;;17.38;2.15;;;;;;;6.61;52.88;104153.81;4958209;28;20061;-71
2023/02/06 08:43:48;;;;;;;17.95;2.72;;;;;;;6.48;53.01;104153.47;4960356;28;20043;-70
2023/02/06 08:46:15;;;;;;;20.10;1.90;;;;;;;6.46;53.16;104155.16;4963723;28;20093;-72
2023/02/06 08:48:41;;;;;;;17.95;2.88;;;;;;;7.42;52.05;104160.38;4960506;28;20054;-70
2023/02/06 08:51:08;;;;;;;19.83;1.65;;;;;;;8.08;49.93;104168.09;4957697;28;20044;-70
2023/02/06 08:53:34;;;;;;;14.27;2.22;;;;;;;8.64;50.50;104174.53;4960686;28;20295;-70
2023/02/06 08:56:05;;;;;;;14.95;2.05;;;;;;;8.37;50.03;104165.28;4960099;28;20150;-70
2023/02/06 08:58:31;;;;;;;19.53;2.33;;;;;;;7.52;49.49;104164.97;4954422;28;20822;-66
2023/02/06 09:00:58;;;;;;;14.30;2.42;;;;;;;6.94;50.36;104171.22;4957080;28;20084;-68
2023/02/06 09:03:27;;;;;;;17.58;3.13;;;;;;;6.61;51.97;104166.81;4962605;28;20049;-70
2023/02/06 09:05:59;;;;;;;20.98;2.45;;;;;;;6.16;52.70;104167.16;4959125;28;21947;-72
2023/02/06 09:08:25;;;;;;;19.35;2.45;;;;;;;6.06;52.52;104173.75;4961278;28;20397;-69
2023/02/06 09:10:50;;;;;;;17.13;2.33;;;;;;;5.82;53.41;104173.88;4959830;28;20571;-72
2023/02/06 09:13:16;;;;;;;23.23;2.45;;;;;;;5.72;53.27;104171.81;4972656;28;20047;-70
2023/02/06 09:15:41;;;;;;;20.15;2.20;;;;;;;5.91;53.22;104168.09;4960698;28;20041;-72
2023/02/06 09:18:10;;;;;;;19.38;1.60;;;;;;;6.09;53.41;104177.34;4967173;28;20511;-69
2023/02/06 09:20:35;;;;;;;25.50;2.55;;;;;;;6.58;53.28;104169.34;4958605;28;20157;-68
2023/02/06 09:23:01;;;;;;;25.05;2.28;;;;;;;6.75;52.40;104168.09;4961541;28;20055;-70
2023/02/06 09:25:26;;;;;;;13.13;2.10;;;;;;;7.22;50.10;104155.53;4960925;28;20038;-68
2023/02/06 09:27:52;;;;;;;14.65;1.50;;;;;;;7.97;49.82;104159.16;4950210;28;20112;-67
2023/02/06 09:30:17;;;;;;;18.55;2.00;;;;;;;7.88;48.63;104157.22;4959647;28;20195;-68
2023/02/06 09:32:43;;;;;;;19.05;1.42;;;;;;;7.65;49.65;104164.47;4958157;28;20086;-69
2023/02/06 09:35:08;;;;;;;19.90;3.03;;;;;;;6.95;50.28;104170.38;4990878;28;20472;-68
2023/02/06 09:37:35;;;;;;;23.88;3.25;;;;;;;6.81;50.06;104163.06;4965712;28;20143;-68
2023/02/06 09:40:00;;;;;;;17.98;1.65;;;;;;;6.69;50.49;104160.13;4961418;28;20049;-68
2023/02/06 09:42:30;;;;;;;17.95;1.52;;;;;;;6.53;51.03;104152.72;4955583;28;20207;-70
2023/02/06 09:45:05;;;;;;;20.23;4.20;;;;;;;6.24;52.07;104156.19;4945669;28;20047;-68
2023/02/06 09:47:34;;;;;;;19.00;2.45;;;;;;;6.19;51.19;104152.53;4952864;28;20054;-68
2023/02/06 09:50:06;;;;;;;18.38;1.67;;;;;;;6.44;51.52;104151.63;4965696;28;20043;-68
2023/02/06 09:52:43;;;;;;;23.40;1.20;;;;;;;6.66;51.49;104150.53;4982741;28;20054;-67
2023/02/06 09:55:36;;;;;;;10.70;1.20;;;;;;;6.41;51.39;104146.31;4980105;28;20439;-71
2023/02/06 09:58:21;;;;;;;12.52;1.05;;;;;;;6.57;50.27;104142.44;4985647;28;20057;-69
2023/02/06 10:00:52;;;;;;;25.50;2.53;;;;;;;6.99;49.03;104146.22;4973875;28;20038;-70
2023/02/06 10:03:35;;;;;;;13.23;1.87;;;;;;;6.91;49.86;104148.63;4958251;28;20511;-72
2023/02/06 10:06:18;;;;;;;26.42;2.30;;;;;;;6.75;50.04;104138.63;4961834;28;20321;-70
2023/02/06 10:09:12;;;;;;;11.80;1.58;;;;;;;6.79;49.82;104137.88;4965561;28;20097;-72
2023/02/06 10:12:12;;;;;;;17.48;1.85;;;;;;;6.97;49.51;104142.69;4959327;28;20034;-71
2023/02/06 10:14:42;;;;;;;15.35;2.35;;;;;;;7.70;48.84;104139.44;4939710;28;20191;-71
2023/02/06 10:17:13;;;;;;;11.30;0.82;;;;;;;7.85;48.45;104149.34;4938547;28;20641;-71
2023/02/06 10:19:45;;;;;;;22.40;2.00;;;;;;;7.64;48.36;104143.59;4952203;28;20039;-71
2023/02/06 10:22:23;;;;;;;22.95;3.05;;;;;;;7.32;48.48;104152.31;4946752;28;20047;-71
2023/02/06 10:25:15;;;;;;;18.48;2.08;;;;;;;7.39;47.88;104155.09;4943681;28;20035;-72
2023/02/06 10:27:43;;;;;;;13.88;1.77;;;;;;;7.51;47.38;104152.78;4930718;28;20125;-72
2023/02/06 10:30:17;;;;;;;23.30;2.40;;;;;;;6.98;48.60;104160.09;4949079;28;20138;-71
2023/02/06 10:32:52;;;;;;;15.68;2.92;;;;;;;7.34;48.38;104149.78;4946654;28;20513;-72
2023/02/06 10:35:59;;;;;;;15.02;1.70;;;;;;;7.15;48.24;104138.00;4971422;28;20059;-72
2023/02/06 10:38:43;;;;;;;16.13;2.90;;;;;;;6.55;48.96;104135.44;4936775;28;20050;-72
2023/02/06 10:41:35;;;;;;;23.75;2.90;;;;;;;6.49;49.42;104138.75;4947281;28;20043;-72
2023/02/06 10:44:03;;;;;;;27.25;2.70;;;;;;;6.95;48.65;104149.56;4946348;28;20645;-72
2023/02/06 10:46:47;;;;;;;17.20;2.10;;;;;;;7.26;49.03;104146.94;4937424;28;20057;-72
2023/02/06 10:49:31;;;;;;;26.48;2.17;;;;;;;7.25;47.58;104144.34;4963343;28;20328;-71
2023/02/06 10:52:00;;;;;;;21.33;2.22;;;;;;;6.69;48.29;104147.13;4949564;28;20057;-71
2023/02/06 10:54:35;;;;;;;21.48;2.35;;;;;;;6.75;48.64;104146.41;4959454;28;20042;-72
2023/02/06 10:57:01;;;;;;;17.88;2.65;;;;;;;6.45;48.95;104135.19;4959101;28;20034;-73
2023/02/06 10:59:44;;;;;;;19.40;4.13;;;;;;;6.95;48.39;104139.19;4958594;28;20039;-71
2023/02/06 11:02:24;;;;;;;16.17;2.38;;;;;;;6.68;48.11;104130.63;4982105;28;20045;-72
2023/02/06 11:05:06;;;;;;;8.48;1.33;;;;;;;6.37;49.54;104134.06;4976034;28;20132;-72
2023/02/06 11:07:39;;;;;;;19.13;2.80;;;;;;;6.49;49.08;104137.03;4957426;28;20075;-72
2023/02/06 11:10:06;;;;;;;21.90;2.28;;;;;;;6.92;48.63;104134.78;4967925;28;20125;-72
2023/02/06 11:12:36;;;;;;;25.42;2.20;;;;;;;6.99;48.22;104130.63;4981862;28;20298;-72
2023/02/06 11:15:15;;;;;;;22.10;1.65;;;;;;;6.74;48.97;104123.88;4989746;28;20500;-72
2023/02/06 11:17:42;;;;;;;13.73;2.20;;;;;;;6.45;49.31;104129.09;4966266;28;20043;-71
2023/02/06 11:20:20;;;;;;;19.33;2.30;;;;;;;6.91;48.19;104123.50;4965271;28;20638;-72
2023/02/06 11:22:46;;;;;;;12.88;1.83;;;;;;;6.85;48.27;104125.94;4944629;28;20048;-72
2023/02/06 11:25:38;;;;;;;15.85;1.25;;;;;;;6.97;47.85;104132.28;4963287;28;20571;-72
2023/02/06 11:28:12;;;;;;;17.20;1.60;;;;;;;6.75;48.36;104131.69;4959815;28;20042;-71
2023/02/06 11:30:41;;;;;;;17.63;2.70;;;;;;;6.79;48.54;104123.16;4957734;28;20470;-72
2023/02/06 11:33:17;;;;;;;14.75;1.77;;;;;;;7.05;47.91;104125.59;4966350;28;20483;-72
2023/02/06 11:35:49;;;;;;;20.38;2.05;;;;;;;7.12;47.38;104130.13;4961304;28;20053;-72